Time,TemperatureF,DewpointF,PressureIn,WindDirection,WindDirectionDegrees,WindSpeedMPH,WindSpeedGustMPH,Humidity,HourlyPrecipIn,Conditions,Clouds,dailyrainin,SolarRadiationWatts/m^2,SoftwareType,DateUTC
2013-02-21 00:05:00,46.5,34.6,29.98,WSW,238,0.0,2.0,63,0.00,,,0.00,0,Wunderground v.1.15,2013-02-21 08:05:00,
2013-02-21 00:14:00,46.3,34.8,29.98,WSW,238,0.0,0.0,64,0.00,,,0.00,0,Wunderground v.1.15,2013-02-21 08:14:00,
2013-02-21 00:20:00,46.1,34.6,29.99,WSW,239,1.0,1.0,64,0.00,,,0.00,0,Wunderground v.1.15,2013-02-21 08:20:00,
2013-02-21 00:25:00,46.1,34.6,29.99,WSW,238,0.0,1.0,64,0.00,,,0.00,0,Wunderground v.1.15,2013-02-21 08:25:00,
2013-02-21 00:35:00,45.7,34.2,29.98,WSW,238,0.0,0.0,64,0.00,,,0.00,0,Wunderground v.1.15,2013-02-21 08:35:00,
2013-02-21 00:44:00,45.2,33.7,29.99,WSW,238,0.0,0.0,64,0.00,,,0.00,0,Wunderground v.1.15,2013-02-21 08:44:00,
2013-02-21 00:50:00,44.7,32.9,29.99,WSW,239,0.0,0.0,63,0.00,,,0.00,0,Wunderground v.1.15,2013-02-21 08:50:00,
2013-02-21 00:55:00,44.4,33.0,29.99,WSW,239,0.0,0.0,64,0.00,,,0.00,0,Wunderground v.1.15,2013-02-21 08:55:00,
2013-02-21 01:00:00,44.2,33.9,29.99,WSW,239,0.0,0.0,67,0.00,,,0.00,0,Wunderground v.1.15,2013-02-21 09:00:00,
2013-02-21 01:05:00,43.9,34.0,29.99,WSW,239,0.0,0.0,68,0.00,,,0.00,0,Wunderground v.1.15,2013-02-21 09:05:00,
2013-02-21 01:14:00,43.7,33.8,29.99,WSW,238,0.0,0.0,68,0.00,,,0.00,0,Wunderground v.1.15,2013-02-21 09:14:00,
2013-02-21 01:19:00,43.6,34.1,30.00,WSW,238,0.0,0.0,69,0.00,,,0.00,0,Wunderground v.1.15,2013-02-21 09:19:00,
2013-02-21 01:24:00,43.4,32.8,30.00,WSW,238,0.0,0.0,66,0.00,,,0.00,0,Wunderground v.1.15,2013-02-21 09:24:00,
2013-02-21 01:30:00,43.3,32.7,29.99,WSW,239,0.0,0.0,66,0.00,,,0.00,0,Wunderground v.1.15,2013-02-21 09:30:00,
2013-02-21 01:40:00,43.1,32.5,29.99,WSW,238,0.0,0.0,66,0.00,,,0.00,0,Wunderground v.1.15,2013-02-21 09:40:00,
2013-02-21 01:45:00,43.0,32.4,29.99,WSW,239,0.0,0.0,66,0.00,,,0.00,0,Wunderground v.1.15,2013-02-21 09:45:00,
2013-02-21 01:54:00,42.8,32.2,29.99,WSW,238,0.0,0.0,66,0.00,,,0.00,0,Wunderground v.1.15,2013-02-21 09:54:00,
2013-02-21 01:59:00,42.7,32.5,29.99,WSW,238,0.0,0.0,67,0.00,,,0.00,0,Wunderground v.1.15,2013-02-21 09:59:00,
2013-02-21 02:05:00,42.7,32.5,29.99,WSW,238,0.0,0.0,67,0.00,,,0.00,0,Wunderground v.1.15,2013-02-21 10:05:00,
2013-02-21 02:14:00,42.7,32.5,29.99,WSW,238,0.0,0.0,67,0.00,,,0.00,0,Wunderground v.1.15,2013-02-21 10:14:00,
2013-02-21 02:20:00,42.6,32.8,29.99,WSW,238,0.0,0.0,68,0.00,,,0.00,0,Wunderground v.1.15,2013-02-21 10:20:00,
2013-02-21 02:25:00,42.5,32.7,29.99,WSW,239,0.0,0.0,68,0.00,,,0.00,0,Wunderground v.1.15,2013-02-21 10:25:00,
2013-02-21 02:30:00,42.5,32.7,29.98,WSW,238,0.0,0.0,68,0.00,,,0.00,0,Wunderground v.1.15,2013-02-21 10:30:00,
2013-02-21 02:40:00,43.1,32.9,29.98,WSW,238,0.0,0.0,67,0.00,,,0.00,0,Wunderground v.1.15,2013-02-21 10:40:00,
2013-02-21 02:49:00,43.2,33.0,29.97,WSW,238,0.0,0.0,67,0.00,,,0.00,0,Wunderground v.1.15,2013-02-21 10:49:00,
2013-02-21 02:55:00,43.3,33.1,29.97,WSW,238,0.0,0.0,67,0.00,,,0.00,0,Wunderground v.1.15,2013-02-21 10:55:00,
2013-02-21 03:00:00,43.2,32.6,29.98,WSW,238,0.0,0.0,66,0.00,,,0.00,0,Wunderground v.1.15,2013-02-21 11:00:00,
2013-02-21 03:05:00,43.0,32.4,29.98,WSW,238,0.0,0.0,66,0.00,,,0.00,0,Wunderground v.1.15,2013-02-21 11:05:00,
2013-02-21 03:14:00,42.8,32.6,29.98,WSW,238,0.0,0.0,67,0.00,,,0.00,0,Wunderground v.1.15,2013-02-21 11:14:00,
2013-02-21 03:19:00,42.8,32.6,29.98,WSW,238,0.0,0.0,67,0.00,,,0.00,0,Wunderground v.1.15,2013-02-21 11:19:00,
2013-02-21 03:24:00,42.9,33.1,29.98,WSW,238,0.0,0.0,68,0.00,,,0.00,0,Wunderground v.1.15,2013-02-21 11:24:00,
2013-02-21 03:30:00,43.2,33.3,29.98,WSW,238,0.0,0.0,68,0.00,,,0.00,0,Wunderground v.1.15,2013-02-21 11:30:00,
2013-02-21 03:40:00,43.7,34.2,29.97,SSW,202,0.0,0.0,69,0.00,,,0.00,0,Wunderground v.1.15,2013-02-21 11:40:00,
2013-02-21 03:45:00,44.3,34.8,29.97,NE,49,0.0,0.0,69,0.00,,,0.00,0,Wunderground v.1.15,2013-02-21 11:45:00,
2013-02-21 03:54:00,45.4,35.1,29.98,NE,49,0.0,1.0,67,0.00,,,0.00,0,Wunderground v.1.15,2013-02-21 11:54:00,
2013-02-21 04:00:00,45.7,35.0,29.98,NE,54,0.0,0.0,66,0.00,,,0.00,0,Wunderground v.1.15,2013-02-21 12:00:00,
2013-02-21 04:05:00,45.9,35.2,29.98,NE,55,0.0,0.0,66,0.00,,,0.00,0,Wunderground v.1.15,2013-02-21 12:05:00,
2013-02-21 04:15:00,46.3,35.2,29.98,ENE,75,0.0,0.0,65,0.00,,,0.00,0,Wunderground v.1.15,2013-02-21 12:15:00,
2013-02-21 04:24:00,46.7,35.6,29.98,SE,131,0.0,0.0,65,0.00,,,0.00,0,Wunderground v.1.15,2013-02-21 12:24:00,
2013-02-21 04:30:00,46.8,35.6,29.99,SE,131,0.0,0.0,65,0.00,,,0.00,0,Wunderground v.1.15,2013-02-21 12:30:00,
2013-02-21 04:40:00,46.9,35.4,29.98,SE,131,0.0,0.0,64,0.00,,,0.00,0,Wunderground v.1.15,2013-02-21 12:40:00,
2013-02-21 04:45:00,46.8,35.3,29.99,SE,136,0.0,0.0,64,0.00,,,0.00,0,Wunderground v.1.15,2013-02-21 12:45:00,
2013-02-21 04:54:00,46.6,35.5,29.99,ENE,74,1.0,1.0,65,0.00,,,0.00,0,Wunderground v.1.15,2013-02-21 12:54:00,
2013-02-21 05:00:00,46.5,35.4,29.99,ENE,74,0.0,0.0,65,0.00,,,0.00,0,Wunderground v.1.15,2013-02-21 13:00:00,
2013-02-21 05:05:00,46.5,35.4,29.99,NE,48,2.0,2.0,65,0.00,,,0.00,0,Wunderground v.1.15,2013-02-21 13:05:00,
2013-02-21 05:14:00,46.4,35.3,29.98,NE,49,4.0,4.0,65,0.00,,,0.00,0,Wunderground v.1.15,2013-02-21 13:14:00,
2013-02-21 05:20:00,46.5,35.4,29.98,NE,51,1.0,1.0,65,0.00,,,0.00,0,Wunderground v.1.15,2013-02-21 13:20:00,
2013-02-21 05:25:00,46.6,35.5,29.98,ENE,64,2.0,2.0,65,0.00,,,0.00,0,Wunderground v.1.15,2013-02-21 13:25:00,
2013-02-21 05:35:00,46.8,35.3,29.98,ENE,72,0.0,2.0,64,0.00,,,0.00,0,Wunderground v.1.15,2013-02-21 13:35:00,
2013-02-21 05:45:00,46.7,35.2,29.98,East,94,1.0,1.0,64,0.00,,,0.00,0,Wunderground v.1.15,2013-02-21 13:45:00,
2013-02-21 05:50:00,46.7,35.2,29.98,East,96,0.0,0.0,64,0.00,,,0.00,0,Wunderground v.1.15,2013-02-21 13:50:00,
2013-02-21 05:59:00,46.5,35.4,29.99,East,86,0.0,0.0,65,0.00,,,0.00,0,Wunderground v.1.15,2013-02-21 13:59:00,
2013-02-21 06:05:00,46.3,35.2,29.99,East,86,0.0,0.0,65,0.00,,,0.00,0,Wunderground v.1.15,2013-02-21 14:05:00,
2013-02-21 06:15:00,45.8,34.7,29.99,East,86,0.0,0.0,65,0.00,,,0.00,0,Wunderground v.1.15,2013-02-21 14:15:00,
2013-02-21 06:20:00,45.6,34.5,30.00,NE,54,0.0,0.0,65,0.00,,,0.00,0,Wunderground v.1.15,2013-02-21 14:20:00,
2013-02-21 06:25:00,45.3,34.6,30.00,NE,53,0.0,0.0,66,0.00,,,0.00,0,Wunderground v.1.15,2013-02-21 14:25:00,
2013-02-21 06:30:00,45.2,34.5,30.00,NE,53,0.0,0.0,66,0.00,,,0.00,0,Wunderground v.1.15,2013-02-21 14:30:00,
2013-02-21 06:40:00,45.2,34.9,30.00,NE,53,0.0,0.0,67,0.00,,,0.00,0,Wunderground v.1.15,2013-02-21 14:40:00,
2013-02-21 06:49:00,45.4,35.1,30.00,NE,53,0.0,0.0,67,0.00,,,0.00,0,Wunderground v.1.15,2013-02-21 14:49:00,
2013-02-21 06:55:00,45.5,35.2,30.00,NE,53,0.0,0.0,67,0.00,,,0.00,0,Wunderground v.1.15,2013-02-21 14:55:00,
2013-02-21 07:05:00,45.9,35.2,30.00,NE,53,0.0,0.0,66,0.00,,,0.00,0,Wunderground v.1.15,2013-02-21 15:05:00,
2013-02-21 07:14:00,46.1,35.4,30.01,NE,53,0.0,0.0,66,0.00,,,0.00,0,Wunderground v.1.15,2013-02-21 15:14:00,
2013-02-21 07:19:00,46.2,35.5,30.01,NE,53,1.0,1.0,66,0.00,,,0.00,0,Wunderground v.1.15,2013-02-21 15:19:00,
2013-02-21 07:25:00,46.3,35.6,30.01,NE,53,0.0,1.0,66,0.00,,,0.00,0,Wunderground v.1.15,2013-02-21 15:25:00,
2013-02-21 07:35:00,46.6,35.8,30.01,NE,53,0.0,0.0,66,0.00,,,0.00,0,Wunderground v.1.15,2013-02-21 15:35:00,
2013-02-21 07:40:00,46.7,35.9,30.01,NE,53,0.0,0.0,66,0.00,,,0.00,0,Wunderground v.1.15,2013-02-21 15:40:00,
2013-02-21 07:49:00,47.0,35.8,30.01,NE,53,0.0,0.0,65,0.00,,,0.00,0,Wunderground v.1.15,2013-02-21 15:49:00,
2013-02-21 07:55:00,47.1,35.9,30.01,NNE,29,0.0,0.0,65,0.00,,,0.00,0,Wunderground v.1.15,2013-02-21 15:55:00,
2013-02-21 08:05:00,47.7,36.5,30.02,NE,48,0.0,2.0,65,0.00,,,0.00,0,Wunderground v.1.15,2013-02-21 16:05:00,
2013-02-21 08:15:00,48.5,36.9,30.02,NE,49,0.0,4.0,64,0.00,,,0.00,0,Wunderground v.1.15,2013-02-21 16:15:00,
2013-02-21 08:20:00,49.1,37.0,30.02,ENE,75,0.0,0.0,63,0.00,,,0.00,0,Wunderground v.1.15,2013-02-21 16:20:00,
2013-02-21 08:29:00,49.8,37.3,30.02,ENE,63,2.0,2.0,62,0.00,,,0.00,0,Wunderground v.1.15,2013-02-21 16:29:00,
2013-02-21 08:35:00,50.2,38.1,30.02,ENE,70,1.0,2.0,63,0.00,,,0.00,0,Wunderground v.1.15,2013-02-21 16:35:00,
2013-02-21 08:44:00,50.5,37.5,30.02,ESE,106,3.0,3.0,61,0.00,,,0.00,0,Wunderground v.1.15,2013-02-21 16:44:00,
2013-02-21 08:50:00,50.7,37.7,30.02,East,83,3.0,3.0,61,0.00,,,0.00,0,Wunderground v.1.15,2013-02-21 16:50:00,
2013-02-21 08:55:00,51.1,38.1,30.02,ESE,116,2.0,3.0,61,0.00,,,0.00,0,Wunderground v.1.15,2013-02-21 16:55:00,
2013-02-21 09:05:00,51.3,37.9,30.01,SE,133,3.0,3.0,60,0.00,,,0.00,0,Wunderground v.1.15,2013-02-21 17:05:00,
2013-02-21 09:15:00,51.5,38.5,30.01,ESE,119,3.0,3.0,61,0.00,,,0.00,0,Wunderground v.1.15,2013-02-21 17:15:00,
2013-02-21 09:20:00,51.6,38.2,30.01,East,95,0.0,0.0,60,0.00,,,0.00,0,Wunderground v.1.15,2013-02-21 17:20:00,
2013-02-21 09:29:00,51.8,38.3,30.01,SE,129,2.0,2.0,60,0.00,,,0.00,0,Wunderground v.1.15,2013-02-21 17:29:00,
2013-02-21 09:39:00,52.3,38.8,30.02,ESE,111,2.0,2.0,60,0.00,,,0.00,0,Wunderground v.1.15,2013-02-21 17:39:00,
2013-02-21 09:45:00,52.5,39.0,30.01,SSE,149,2.0,2.0,60,0.00,,,0.00,0,Wunderground v.1.15,2013-02-21 17:45:00,
2013-02-21 09:50:00,52.7,39.2,30.02,SSW,205,0.0,0.0,60,0.00,,,0.00,0,Wunderground v.1.15,2013-02-21 17:50:00,
2013-02-21 09:59:00,53.0,39.5,30.01,SSE,147,6.0,6.0,60,0.00,,,0.00,0,Wunderground v.1.15,2013-02-21 17:59:00,
2013-02-21 10:05:00,53.5,39.9,30.02,ESE,118,1.0,6.0,60,0.00,,,0.00,0,Wunderground v.1.15,2013-02-21 18:05:00,
2013-02-21 10:14:00,54.1,40.1,30.03,East,96,0.0,2.0,59,0.00,,,0.00,0,Wunderground v.1.15,2013-02-21 18:14:00,
2013-02-21 10:19:00,54.2,40.2,30.03,South,178,2.0,2.0,59,0.00,,,0.00,0,Wunderground v.1.15,2013-02-21 18:19:00,
2013-02-21 10:24:00,54.4,40.4,30.03,SSE,155,2.0,2.0,59,0.00,,,0.00,0,Wunderground v.1.15,2013-02-21 18:24:00,
2013-02-21 10:30:00,54.8,40.7,30.02,SSE,152,2.0,2.0,59,0.00,,,0.00,0,Wunderground v.1.15,2013-02-21 18:30:00,
2013-02-21 10:39:00,55.2,40.2,30.02,SSE,167,3.0,3.0,57,0.00,,,0.00,0,Wunderground v.1.15,2013-02-21 18:39:00,
2013-02-21 10:45:00,55.0,40.5,30.02,ESE,119,1.0,3.0,58,0.00,,,0.00,0,Wunderground v.1.15,2013-02-21 18:45:00,
2013-02-21 10:54:00,55.5,41.0,30.02,SE,145,0.0,3.0,58,0.00,,,0.00,0,Wunderground v.1.15,2013-02-21 18:54:00,
2013-02-21 11:00:00,56.2,41.2,30.01,ESE,107,2.0,2.0,57,0.00,,,0.00,0,Wunderground v.1.15,2013-02-21 19:00:00,
2013-02-21 11:05:00,56.4,40.4,30.01,SSW,204,1.0,2.0,55,0.00,,,0.00,0,Wunderground v.1.15,2013-02-21 19:05:00,
2013-02-21 11:14:00,57.1,41.5,30.00,SE,127,6.0,6.0,56,0.00,,,0.00,0,Wunderground v.1.15,2013-02-21 19:14:00,
2013-02-21 11:19:00,57.7,40.7,30.00,ESE,118,3.0,3.0,53,0.00,,,0.00,0,Wunderground v.1.15,2013-02-21 19:19:00,
2013-02-21 11:25:00,57.7,40.7,30.00,SE,128,3.0,3.0,53,0.00,,,0.00,0,Wunderground v.1.15,2013-02-21 19:25:00,
2013-02-21 11:30:00,57.5,40.5,29.99,SSE,165,0.0,0.0,53,0.00,,,0.00,0,Wunderground v.1.15,2013-02-21 19:30:00,
2013-02-21 11:40:00,58.1,41.5,29.98,ESE,120,5.0,5.0,54,0.00,,,0.00,0,Wunderground v.1.15,2013-02-21 19:40:00,
2013-02-21 11:49:00,58.3,41.2,29.98,ESE,108,2.0,2.0,53,0.00,,,0.00,0,Wunderground v.1.15,2013-02-21 19:49:00,
2013-02-21 11:54:00,58.1,41.0,29.98,SSW,203,3.0,3.0,53,0.00,,,0.00,0,Wunderground v.1.15,2013-02-21 19:54:00,
2013-02-21 12:00:00,58.0,41.0,29.98,SSE,162,0.0,0.0,53,0.00,,,0.00,0,Wunderground v.1.15,2013-02-21 20:00:00,
2013-02-21 12:05:00,58.4,40.8,29.97,SE,144,5.0,5.0,52,0.00,,,0.00,0,Wunderground v.1.15,2013-02-21 20:05:00,
2013-02-21 12:14:00,57.9,40.9,29.97,SW,216,3.0,8.0,53,0.00,,,0.00,0,Wunderground v.1.15,2013-02-21 20:14:00,
2013-02-21 12:19:00,57.4,39.9,29.97,SE,133,2.0,2.0,52,0.00,,,0.00,0,Wunderground v.1.15,2013-02-21 20:19:00,
2013-02-21 12:24:00,57.0,40.0,29.96,SSW,209,1.0,2.0,53,0.00,,,0.00,0,Wunderground v.1.15,2013-02-21 20:24:00,
2013-02-21 12:30:00,57.1,39.1,29.97,SW,227,7.0,7.0,51,0.00,,,0.00,0,Wunderground v.1.15,2013-02-21 20:30:00,
2013-02-21 12:40:00,57.0,39.0,29.96,SSW,203,3.0,3.0,51,0.00,,,0.00,0,Wunderground v.1.15,2013-02-21 20:40:00,
2013-02-21 12:45:00,57.0,39.0,29.96,SSE,168,0.0,3.0,51,0.00,,,0.00,0,Wunderground v.1.15,2013-02-21 20:45:00,
2013-02-21 12:55:00,57.0,39.5,29.96,SSW,197,0.0,5.0,52,0.00,,,0.00,0,Wunderground v.1.15,2013-02-21 20:55:00,
2013-02-21 13:00:00,57.0,39.0,29.96,WSW,248,5.0,5.0,51,0.00,,,0.00,0,Wunderground v.1.15,2013-02-21 21:00:00,
2013-02-21 13:05:00,57.2,39.2,29.96,SW,218,1.0,5.0,51,0.00,,,0.00,0,Wunderground v.1.15,2013-02-21 21:05:00,
2013-02-21 13:14:00,58.2,39.1,29.96,South,175,4.0,4.0,49,0.00,,,0.00,0,Wunderground v.1.15,2013-02-21 21:14:00,
2013-02-21 13:19:00,57.3,38.3,29.96,SW,223,3.0,3.0,49,0.00,,,0.00,0,Wunderground v.1.15,2013-02-21 21:19:00,
2013-02-21 13:24:00,56.4,38.5,29.96,South,187,5.0,5.0,51,0.00,,,0.00,0,Wunderground v.1.15,2013-02-21 21:24:00,
2013-02-21 13:30:00,55.6,38.2,29.96,WSW,238,3.0,3.0,52,0.00,,,0.00,0,Wunderground v.1.15,2013-02-21 21:30:00,
2013-02-21 13:39:00,55.0,38.2,29.96,SSW,200,4.0,4.0,53,0.00,,,0.00,0,Wunderground v.1.15,2013-02-21 21:39:00,
2013-02-21 13:45:00,55.9,39.5,29.96,SW,229,2.0,4.0,54,0.00,,,0.00,0,Wunderground v.1.15,2013-02-21 21:45:00,
2013-02-21 13:50:00,57.1,40.1,29.96,SW,215,6.0,6.0,53,0.00,,,0.00,0,Wunderground v.1.15,2013-02-21 21:50:00,
2013-02-21 13:55:00,57.1,39.6,29.95,WSW,251,0.0,6.0,52,0.00,,,0.00,0,Wunderground v.1.15,2013-02-21 21:55:00,
2013-02-21 14:05:00,56.0,38.6,29.96,SE,144,3.0,3.0,52,0.00,,,0.00,0,Wunderground v.1.15,2013-02-21 22:05:00,
2013-02-21 14:15:00,54.8,38.9,29.96,South,183,0.0,5.0,55,0.00,,,0.00,0,Wunderground v.1.15,2013-02-21 22:15:00,
2013-02-21 14:20:00,54.5,38.7,29.96,West,261,3.0,3.0,55,0.00,,,0.00,0,Wunderground v.1.15,2013-02-21 22:20:00,
2013-02-21 14:29:00,54.3,38.9,29.96,SSW,209,0.0,0.0,56,0.00,,,0.00,0,Wunderground v.1.15,2013-02-21 22:29:00,
2013-02-21 14:35:00,54.3,39.4,29.96,SSW,210,3.0,3.0,57,0.00,,,0.00,0,Wunderground v.1.15,2013-02-21 22:35:00,
2013-02-21 14:44:00,53.8,41.1,29.97,SSW,210,0.0,0.0,62,0.00,,,0.00,0,Wunderground v.1.15,2013-02-21 22:44:00,
2013-02-21 14:50:00,53.2,40.5,29.97,SSW,210,0.0,0.0,62,0.00,,,0.00,0,Wunderground v.1.15,2013-02-21 22:50:00,
2013-02-21 14:55:00,53.5,41.2,29.97,SSW,210,1.0,1.0,63,0.00,,,0.00,0,Wunderground v.1.15,2013-02-21 22:55:00,
2013-02-21 15:05:00,56.0,43.6,29.95,SSW,203,2.0,2.0,63,0.00,,,0.00,0,Wunderground v.1.15,2013-02-21 23:05:00,
2013-02-21 15:15:00,57.1,41.1,29.95,ESE,121,3.0,3.0,55,0.00,,,0.00,0,Wunderground v.1.15,2013-02-21 23:15:00,
2013-02-21 15:20:00,56.3,42.1,29.95,ENE,70,0.0,0.0,59,0.00,,,0.00,0,Wunderground v.1.15,2013-02-21 23:20:00,
2013-02-21 15:29:00,57.4,42.7,29.95,ESE,118,1.0,1.0,58,0.00,,,0.00,0,Wunderground v.1.15,2013-02-21 23:29:00,
2013-02-21 15:39:00,58.1,40.6,29.96,South,181,1.0,1.0,52,0.00,,,0.00,0,Wunderground v.1.15,2013-02-21 23:39:00,
2013-02-21 15:44:00,57.8,39.8,29.96,SSW,197,3.0,3.0,51,0.00,,,0.00,0,Wunderground v.1.15,2013-02-21 23:44:00,
2013-02-21 15:49:00,57.3,39.3,29.95,South,182,1.0,1.0,51,0.00,,,0.00,0,Wunderground v.1.15,2013-02-21 23:49:00,
2013-02-21 15:55:00,57.2,39.2,29.95,SSW,209,1.0,1.0,51,0.00,,,0.00,0,Wunderground v.1.15,2013-02-21 23:55:00,
2013-02-21 16:05:00,56.8,38.3,29.96,SSW,207,4.0,4.0,50,0.00,,,0.00,0,Wunderground v.1.15,2013-02-22 00:05:00,
2013-02-21 16:15:00,56.4,38.5,29.96,SSW,194,5.0,5.0,51,0.00,,,0.00,0,Wunderground v.1.15,2013-02-22 00:15:00,
2013-02-21 16:20:00,56.5,38.1,29.95,South,179,0.0,0.0,50,0.00,,,0.00,0,Wunderground v.1.15,2013-02-22 00:20:00,
2013-02-21 16:29:00,56.9,38.4,29.95,SSW,208,0.0,0.0,50,0.00,,,0.00,0,Wunderground v.1.15,2013-02-22 00:29:00,
2013-02-21 16:39:00,56.8,37.8,29.95,South,171,0.0,0.0,49,0.00,,,0.00,0,Wunderground v.1.15,2013-02-22 00:39:00,
2013-02-21 16:44:00,56.6,37.6,29.95,South,183,1.0,1.0,49,0.00,,,0.00,0,Wunderground v.1.15,2013-02-22 00:44:00,
2013-02-21 16:50:00,56.5,38.1,29.95,SSW,207,0.0,0.0,50,0.00,,,0.00,0,Wunderground v.1.15,2013-02-22 00:50:00,
2013-02-21 16:55:00,56.6,38.7,29.95,SSW,207,0.0,0.0,51,0.00,,,0.00,0,Wunderground v.1.15,2013-02-22 00:55:00,
2013-02-21 17:05:00,57.3,39.8,29.95,SSW,207,0.0,0.0,52,0.00,,,0.00,0,Wunderground v.1.15,2013-02-22 01:05:00,
2013-02-21 17:14:00,57.7,39.7,29.96,SSW,207,0.0,1.0,51,0.00,,,0.00,0,Wunderground v.1.15,2013-02-22 01:14:00,
2013-02-21 17:20:00,57.4,39.9,29.96,SSW,207,0.0,0.0,52,0.00,,,0.00,0,Wunderground v.1.15,2013-02-22 01:20:00,
2013-02-21 17:29:00,56.6,39.7,29.97,SSW,207,0.0,0.0,53,0.00,,,0.00,0,Wunderground v.1.15,2013-02-22 01:29:00,
2013-02-21 17:35:00,56.1,39.7,29.97,SSW,207,0.0,0.0,54,0.00,,,0.00,0,Wunderground v.1.15,2013-02-22 01:35:00,
2013-02-21 17:44:00,55.3,39.4,29.98,SSW,207,0.0,0.0,55,0.00,,,0.00,0,Wunderground v.1.15,2013-02-22 01:44:00,
2013-02-21 17:50:00,54.9,39.5,29.98,SSW,207,0.0,0.0,56,0.00,,,0.00,0,Wunderground v.1.15,2013-02-22 01:50:00,
2013-02-21 17:55:00,54.3,38.9,29.99,SSW,207,0.0,0.0,56,0.00,,,0.00,0,Wunderground v.1.15,2013-02-22 01:55:00,
2013-02-21 18:05:00,53.3,38.9,30.00,SSW,207,0.0,0.0,58,0.00,,,0.00,0,Wunderground v.1.15,2013-02-22 02:05:00,
2013-02-21 18:14:00,52.7,38.8,30.00,SSW,207,0.0,0.0,59,0.00,,,0.00,0,Wunderground v.1.15,2013-02-22 02:14:00,
2013-02-21 18:19:00,52.4,38.9,30.00,SSW,207,0.0,0.0,60,0.00,,,0.00,0,Wunderground v.1.15,2013-02-22 02:19:00,
2013-02-21 18:25:00,52.2,38.7,30.00,SSW,207,0.0,0.0,60,0.00,,,0.00,0,Wunderground v.1.15,2013-02-22 02:25:00,
2013-02-21 18:30:00,52.0,38.5,30.00,SSW,207,0.0,0.0,60,0.00,,,0.00,0,Wunderground v.1.15,2013-02-22 02:30:00,
2013-02-21 18:40:00,51.6,38.6,30.01,SSW,207,0.0,0.0,61,0.00,,,0.00,0,Wunderground v.1.15,2013-02-22 02:40:00,
2013-02-21 18:45:00,51.4,38.4,30.01,SSW,207,0.0,0.0,61,0.00,,,0.00,0,Wunderground v.1.15,2013-02-22 02:45:00,
2013-02-21 18:54:00,51.3,38.7,30.01,SSW,207,0.0,0.0,62,0.00,,,0.00,0,Wunderground v.1.15,2013-02-22 02:54:00,
2013-02-21 18:59:00,51.1,38.5,30.01,SSW,207,0.0,0.0,62,0.00,,,0.00,0,Wunderground v.1.15,2013-02-22 02:59:00,
2013-02-21 19:05:00,51.1,38.5,30.01,SSW,207,0.0,0.0,62,0.00,,,0.00,0,Wunderground v.1.15,2013-02-22 03:05:00,
2013-02-21 19:15:00,50.9,38.3,30.02,SSW,207,0.0,0.0,62,0.00,,,0.00,0,Wunderground v.1.15,2013-02-22 03:15:00,
2013-02-21 19:20:00,50.8,38.7,30.02,SSW,207,0.0,0.0,63,0.00,,,0.00,0,Wunderground v.1.15,2013-02-22 03:20:00,
2013-02-21 19:29:00,50.5,38.0,30.02,SSW,207,0.0,0.0,62,0.00,,,0.00,0,Wunderground v.1.15,2013-02-22 03:29:00,
2013-02-21 19:35:00,50.3,38.2,30.03,SSW,207,0.0,0.0,63,0.00,,,0.00,0,Wunderground v.1.15,2013-02-22 03:35:00,
2013-02-21 19:44:00,50.1,38.4,30.03,West,267,0.0,0.0,64,0.00,,,0.00,0,Wunderground v.1.15,2013-02-22 03:44:00,
2013-02-21 19:50:00,50.0,38.3,30.03,West,267,0.0,0.0,64,0.00,,,0.00,0,Wunderground v.1.15,2013-02-22 03:50:00,
2013-02-21 19:55:00,49.9,38.2,30.04,West,267,0.0,0.0,64,0.00,,,0.00,0,Wunderground v.1.15,2013-02-22 03:55:00,
2013-02-21 20:05:00,49.7,38.0,30.04,West,267,0.0,0.0,64,0.00,,,0.00,0,Wunderground v.1.15,2013-02-22 04:05:00,
2013-02-21 20:14:00,49.8,38.1,30.05,West,267,0.0,0.0,64,0.00,,,0.00,0,Wunderground v.1.15,2013-02-22 04:14:00,
2013-02-21 20:19:00,49.8,38.1,30.05,West,267,0.0,0.0,64,0.00,,,0.00,0,Wunderground v.1.15,2013-02-22 04:19:00,
2013-02-21 20:24:00,49.7,38.0,30.05,West,267,0.0,0.0,64,0.00,,,0.00,0,Wunderground v.1.15,2013-02-22 04:24:00,
2013-02-21 20:30:00,49.7,38.0,30.05,West,267,0.0,0.0,64,0.00,,,0.00,0,Wunderground v.1.15,2013-02-22 04:30:00,
2013-02-21 20:40:00,49.5,37.8,30.05,West,267,0.0,0.0,64,0.00,,,0.00,0,Wunderground v.1.15,2013-02-22 04:40:00,
2013-02-21 20:49:00,49.4,37.7,30.06,West,267,0.0,0.0,64,0.00,,,0.00,0,Wunderground v.1.15,2013-02-22 04:49:00,
2013-02-21 20:54:00,49.3,38.0,30.06,West,267,0.0,0.0,65,0.00,,,0.00,0,Wunderground v.1.15,2013-02-22 04:54:00,
2013-02-21 20:59:00,49.2,37.5,30.06,West,267,0.0,0.0,64,0.00,,,0.00,0,Wunderground v.1.15,2013-02-22 04:59:00,
2013-02-21 21:05:00,49.1,37.4,30.06,West,267,0.0,0.0,64,0.00,,,0.00,0,Wunderground v.1.15,2013-02-22 05:05:00,
2013-02-21 21:09:00,49.0,37.7,30.06,West,267,0.0,0.0,65,0.00,,,0.00,0,Wunderground v.1.15,2013-02-22 05:09:00,
2013-02-21 21:15:00,48.9,37.3,30.06,West,267,0.0,0.0,64,0.00,,,0.00,0,Wunderground v.1.15,2013-02-22 05:15:00,
2013-02-21 21:20:00,48.6,37.4,30.06,West,267,0.0,0.0,65,0.00,,,0.00,0,Wunderground v.1.15,2013-02-22 05:20:00,
2013-02-21 21:29:00,48.2,37.4,30.07,West,267,0.0,0.0,66,0.00,,,0.00,0,Wunderground v.1.15,2013-02-22 05:29:00,
2013-02-21 21:35:00,48.1,37.7,30.07,West,267,0.0,0.0,67,0.00,,,0.00,0,Wunderground v.1.15,2013-02-22 05:35:00,
2013-02-21 21:44:00,47.7,36.9,30.06,West,267,0.0,0.0,66,0.00,,,0.00,0,Wunderground v.1.15,2013-02-22 05:44:00,
2013-02-21 21:50:00,47.6,36.8,30.06,West,267,0.0,0.0,66,0.00,,,0.00,0,Wunderground v.1.15,2013-02-22 05:50:00,
2013-02-21 21:55:00,47.5,36.7,30.06,West,267,0.0,0.0,66,0.00,,,0.00,0,Wunderground v.1.15,2013-02-22 05:55:00,
2013-02-21 22:05:00,47.2,36.4,30.06,West,267,0.0,0.0,66,0.00,,,0.00,0,Wunderground v.1.15,2013-02-22 06:05:00,
2013-02-21 22:14:00,46.9,36.1,30.06,West,267,0.0,0.0,66,0.00,,,0.00,0,Wunderground v.1.15,2013-02-22 06:14:00,
2013-02-21 22:20:00,46.7,35.9,30.06,West,267,0.0,0.0,66,0.00,,,0.00,0,Wunderground v.1.15,2013-02-22 06:20:00,
2013-02-21 22:25:00,46.5,35.7,30.06,West,267,0.0,0.0,66,0.00,,,0.00,0,Wunderground v.1.15,2013-02-22 06:25:00,
2013-02-21 22:35:00,46.4,35.7,30.06,West,267,0.0,0.0,66,0.00,,,0.00,0,Wunderground v.1.15,2013-02-22 06:35:00,
2013-02-21 22:40:00,46.5,35.7,30.06,West,267,0.0,0.0,66,0.00,,,0.00,0,Wunderground v.1.15,2013-02-22 06:40:00,
2013-02-21 22:49:00,46.1,35.7,30.07,West,267,0.0,0.0,67,0.00,,,0.00,0,Wunderground v.1.15,2013-02-22 06:49:00,
2013-02-21 22:54:00,45.8,35.8,30.07,West,267,0.0,0.0,68,0.00,,,0.00,0,Wunderground v.1.15,2013-02-22 06:54:00,
2013-02-21 23:00:00,45.5,35.9,30.07,West,267,1.0,1.0,69,0.00,,,0.00,0,Wunderground v.1.15,2013-02-22 07:00:00,
2013-02-21 23:05:00,45.4,35.8,30.07,West,267,0.0,1.0,69,0.00,,,0.00,0,Wunderground v.1.15,2013-02-22 07:05:00,
2013-02-21 23:14:00,45.0,35.1,30.07,West,267,0.0,0.0,68,0.00,,,0.00,0,Wunderground v.1.15,2013-02-22 07:14:00,
2013-02-21 23:19:00,45.0,35.4,30.07,West,267,0.0,0.0,69,0.00,,,0.00,0,Wunderground v.1.15,2013-02-22 07:19:00,
2013-02-21 23:24:00,45.0,35.4,30.07,West,267,0.0,0.0,69,0.00,,,0.00,0,Wunderground v.1.15,2013-02-22 07:24:00,
2013-02-21 23:29:00,45.1,35.2,30.07,West,267,0.0,0.0,68,0.00,,,0.00,0,Wunderground v.1.15,2013-02-22 07:29:00,
2013-02-21 23:39:00,44.7,34.8,30.07,West,267,0.0,0.0,68,0.00,,,0.00,0,Wunderground v.1.15,2013-02-22 07:39:00,
2013-02-21 23:44:00,44.3,34.8,30.07,West,267,0.0,0.0,69,0.00,,,0.00,0,Wunderground v.1.15,2013-02-22 07:44:00,
2013-02-21 23:50:00,44.0,34.8,30.07,West,267,0.0,0.0,70,0.00,,,0.00,0,Wunderground v.1.15,2013-02-22 07:50:00,
2013-02-21 23:55:00,43.9,34.7,30.08,West,267,0.0,0.0,70,0.00,,,0.00,0,Wunderground v.1.15,2013-02-22 07:55:00,